Station APAM2 - 8575512 - Annapolis, MD Image indicating link to RSS feed of recent meteorological observations for station APAM2


Conditions at APAM2 as of
(8:00 pm EDT on 09/02/2026)
0000 GMT on 09/03/2026:
     

Click on the graph icon in the table below to see a time series plot of the last five days of that observation.

5-day plot - Wind Direction Wind Direction (WDIR): N ( 10 deg true )
5-day plot - Wind Speed Wind Speed (WSPD): 4.1 kts
5-day plot - Wind Gust Wind Gust (GST): 5.1 kts
5-day plot - Atmospheric Pressure Atmospheric Pressure (PRES):30.03 in
5-day plot - Pressure Tendency Pressure Tendency (PTDY):-0.01 in ( Falling )
5-day plot - Air Temperature Air Temperature (ATMP): 76.5 °F
5-day plot - Water Temperature Water Temperature (WTMP): 82.9 °F
5-day plot -  Wind Speed, Wind Gust and Atmospheric Pressure Combined plot of Wind Speed, Gust, and Air Pressure
NOS Water Level Observation Network Water Level
Previous observations
TIME
(EDT)
5-day plot - Wind Direction
WDIR
 
5-day plot - Wind Speed
WSPD
kts
5-day plot - Wind Gust
GST
kts
5-day plot - Wave Height
WVHT
ft
5-day plot - Dominant Wave Period
DPD
sec
5-day plot - Average Wave Period
APD
sec
5-day plot - Mean Wave Direction
MWD
 
5-day plot - Atmospheric Pressure
PRES
in
5-day plot - Pressure Tendency
PTDY
in
5-day plot - Air Temperature
ATMP
°F
5-day plot - Water Temperature
WTMP
°F
5-day plot - Dew Point
DEWP
°F
5-day plot - Salinity
SAL
psu
5-day plot - Visibility
VIS
nmi
5-day plot - Tide (above MLLW)
TIDE
ft
2026-09-02 07:54 pmNNE 5.1 6.0----30.03- 76.5 82.9----
2026-09-02 07:48 pmNNE 4.1 5.1----30.02-- 82.9----
2026-09-02 07:42 pmNNE 4.1 5.1----30.03-- 82.9----
2026-09-02 07:36 pmNNE 2.9 4.1----30.03-- 82.9----
2026-09-02 07:30 pmWNW 1.0 1.9----30.03- 77.7 82.9----
2026-09-02 07:24 pm W 1.0 1.9----30.03- 77.9 82.9----
2026-09-02 07:18 pmWNW 1.9 1.9----30.03-- 82.9----
2026-09-02 07:00 pmWSW 1.0 4.1----30.03-0.01 78.1 82.9----
2026-09-02 06:54 pm W 1.0 1.9----30.03- 78.3 83.1----
2026-09-02 06:48 pm W 1.0 1.9----30.03- 78.4 82.9----
2026-09-02 06:42 pm S 1.9 4.1----30.03- 78.4 82.8----
2026-09-02 06:36 pmSSW 1.0 1.9----30.03- 78.4 82.8----
2026-09-02 06:30 pm S 1.0 2.9----30.03- 78.4 82.8----
2026-09-02 06:24 pmSSW 1.0 4.1----30.03- 78.3 82.8----
2026-09-02 06:18 pmSSW 1.0 2.9----30.03-- 82.6----
2026-09-02 06:12 pm- 0.0 1.9----30.03-- 82.2----
2026-09-02 06:06 pm- 0.0 1.0----30.03-- 82.4----
2026-09-02 06:00 pm NW 1.0 1.9----30.04+0.00 78.1 82.6----
2026-09-02 05:54 pmSSE 1.0 1.9----30.04- 78.1 82.6----
2026-09-02 05:48 pmSSW 1.9 1.9----30.05- 77.7 82.6----
2026-09-02 05:42 pm W 1.0 2.9----30.05- 77.7 82.6----
2026-09-02 05:36 pm NW 1.0 2.9----30.05- 77.5 82.6----
2026-09-02 05:30 pmWNW 1.9 1.9----30.05- 77.5 82.6----
2026-09-02 05:24 pm- 0.0 2.9----30.04- 77.2 82.9----
2026-09-02 05:18 pm W 1.0 2.9----30.04-- 83.5----
2026-09-02 05:12 pmWSW 1.9 4.1----30.05-- 83.7----
2026-09-02 05:06 pm SW 1.0 2.9----30.05-- 83.8----
2026-09-02 05:00 pm- 0.0 1.9----30.04-0.05 77.0 83.8----
2026-09-02 04:54 pm SW 1.9 4.1----30.04- 77.0 83.8----
2026-09-02 04:48 pm SW 1.9 2.9----30.04- 77.0 83.8----
2026-09-02 04:42 pm- 0.0 6.0----30.04- 77.4 83.8----
2026-09-02 04:36 pmSSW 1.9 5.1----30.04- 77.2 83.8----
2026-09-02 04:30 pmSSE 4.1 6.0----30.03- 77.0 83.8----
2026-09-02 04:24 pm S 2.9 6.0----30.03- 76.8 83.8----
2026-09-02 04:18 pmSSW 2.9 6.0----30.04-- 84.0----
2026-09-02 04:12 pmSSE 4.1 6.0----30.04-- 84.0----
2026-09-02 04:06 pm S 2.9 5.1----30.05-- 84.0----
2026-09-02 04:00 pmSSE 4.1 6.0----30.04-0.04 77.0 84.0----
2026-09-02 03:54 pm SE 2.9 7.0----30.04- 77.0 84.0----
2026-09-02 03:48 pmSSE 4.1 6.0----30.05- 76.8 84.0----
2026-09-02 03:42 pmESE 2.9 4.1----30.05- 76.5 84.0----
2026-09-02 03:36 pm E 2.9 5.1----30.05- 76.3 84.0----
2026-09-02 03:30 pmENE 5.1 6.0----30.05- 75.9 84.0----
2026-09-02 03:24 pmENE 5.1 6.0----30.04- 75.7 84.0----
2026-09-02 03:18 pmENE 5.1 6.0----30.04-- 84.0----
2026-09-02 03:12 pmENE 1.0 1.9----30.04-- 84.0----
2026-09-02 03:06 pm- 0.0 1.9----30.04-- 84.0----
2026-09-02 03:00 pmSSE 1.0 4.1----30.04-0.03 75.6 84.0----
2026-09-02 02:54 pmWSW 1.9 5.1----30.05- 75.2 83.8----
2026-09-02 02:48 pmWNW 2.9 5.1----30.05- 75.4 83.8----
2026-09-02 02:42 pmNNW 1.0 2.9----30.05- 75.0 83.8----
2026-09-02 02:36 pm E 1.0 1.9----30.05- 75.0 83.8----
2026-09-02 02:30 pm NW 1.0 2.9----30.06- 75.0 84.0----
2026-09-02 02:24 pm E 1.0 5.1----30.07- 74.8 84.0----
2026-09-02 02:18 pm NE 4.1 6.0----30.07-- 84.0----
2026-09-02 02:12 pmNNE 5.1 6.0----30.09-- 84.0----
2026-09-02 02:06 pm W 4.1 7.0----30.10-- 84.0----
2026-09-02 02:00 pm W 6.0 8.9----30.10+0.01 74.7 84.0----
2026-09-02 01:54 pm W 6.0 11.1----30.10- 74.7 84.0----
2026-09-02 01:48 pm W 9.9 28.0----30.12-- 84.0----
2026-09-02 01:42 pmWNW 24.1 34.0----30.13-- 83.8----
2026-09-02 01:36 pm NW 28.0 32.1----30.14-- 83.7----
2026-09-02 01:30 pm NW 19.0 26.0----30.14- 82.8 83.8----
2026-09-02 01:24 pm N 1.9 2.9----30.11- 83.5 83.8----
2026-09-02 01:18 pm E 1.9 2.9----30.09-- 83.8----
2026-09-02 01:12 pmESE 1.0 4.1----30.09-- 83.8----
2026-09-02 01:06 pm E 2.9 6.0----30.09-- 83.8----
2026-09-02 01:00 pm E 6.0 7.0----30.08+0.01 82.6 84.0----
2026-09-02 12:54 pm E 2.9 7.0----30.08- 82.6 83.8----
2026-09-02 12:48 pm E 6.0 7.0----30.08- 82.2 83.7----
2026-09-02 12:42 pm E 2.9 5.1----30.08- 82.8 83.7----
2026-09-02 12:36 pm NE 1.0 2.9----30.08- 82.8 83.7----
2026-09-02 12:30 pm NE 4.1 6.0----30.08- 81.9 83.8----
2026-09-02 12:24 pmENE 2.9 7.0----30.07- 81.7 83.8----
2026-09-02 12:18 pm E 4.1 8.9----30.07-- 83.5----
2026-09-02 12:12 pmENE 7.0 8.0----30.07-- 83.5----
2026-09-02 12:06 pmENE 8.0 9.9----30.07-- 83.5----
2026-09-02 12:00 pmENE 7.0 8.9----30.07+0.01 80.8 83.5----
2026-09-02 11:54 amENE 6.0 7.0----30.07- 80.8 83.5----
2026-09-02 11:48 amENE 7.0 9.9----30.07-- 83.5----
2026-09-02 11:42 am NE 6.0 11.1----30.07-- 83.3----
2026-09-02 11:36 am E 6.0 8.9----30.07-- 83.5----
2026-09-02 11:30 amENE 7.0 8.0----30.07- 79.9 83.3----
2026-09-02 11:24 amNNE 5.1 9.9----30.07- 79.2 83.3----
2026-09-02 11:18 am NE 4.1 7.0----30.07-- 83.1----
2026-09-02 11:12 amNNE 4.1 8.0----30.07-- 83.1----
2026-09-02 11:06 am N 5.1 7.0----30.08-- 83.1----
2026-09-02 11:00 amNNE 4.1 7.0----30.08+0.04 79.2 83.1----
2026-09-02 10:54 am E 4.1 8.0----30.08- 78.8 83.1----
2026-09-02 10:48 am E 5.1 9.9----30.08- 78.4 83.1----
2026-09-02 10:42 am E 8.0 9.9----30.07- 78.3 83.1----
2026-09-02 10:36 am E 7.0 8.0----30.08- 78.4 83.1----
2026-09-02 10:30 amENE 5.1 7.0----30.08- 78.1 83.1----
2026-09-02 10:24 am E 6.0 8.9----30.08- 77.7 83.1----
2026-09-02 10:18 am E 5.1 8.9----30.07-- 83.1----
2026-09-02 10:12 am E 8.9 11.1----30.07-- 83.1----
2026-09-02 10:06 am E 9.9 11.1----30.06-- 82.9----
2026-09-02 10:00 amENE 7.0 9.9----30.06+0.03- 82.9----
2026-09-02 09:54 amENE 9.9 12.0----30.06-- 82.9----
2026-09-02 09:48 am E 7.0 11.1----30.06- 78.3 82.9----
2026-09-02 09:42 amENE 8.0 9.9----30.07- 78.6 82.9----
2026-09-02 09:36 amENE 7.0 9.9----30.07- 78.6 82.9----
2026-09-02 09:30 am NE 7.0 9.9----30.07- 78.4 82.9----
2026-09-02 09:24 amENE 8.0 9.9----30.06- 78.6 82.9----
2026-09-02 09:18 am E 8.0 9.9----30.06-- 82.9----
2026-09-02 09:12 amENE 5.1 7.0----30.06-- 82.9----
2026-09-02 09:06 am NE 4.1 7.0----30.06-- 82.9----
2026-09-02 09:00 am NE 4.1 7.0----30.06+0.03 78.6 82.9----
2026-09-02 08:54 amENE 7.0 8.0----30.06- 78.3 82.9----
2026-09-02 08:48 am NE 6.0 8.0----30.06- 78.3 82.9----
2026-09-02 08:42 am NE 5.1 8.0----30.05- 78.8 82.8----
2026-09-02 08:36 am NE 5.1 6.0----30.05- 78.6 82.8----
2026-09-02 08:30 am NE 5.1 7.0----30.05- 78.4 82.8----
2026-09-02 08:24 amNNE 4.1 8.9----30.05- 78.6 82.8----
2026-09-02 08:18 am NE 6.0 8.0----30.05-- 82.9----
2026-09-02 08:12 amNNE 7.0 8.0----30.05-- 82.9----
2026-09-02 08:06 amENE 7.0 9.9----30.05-- 82.9----
2026-09-02 08:00 am NE 7.0 8.9----30.04+0.02 78.6 82.9----
2026-09-02 07:54 am NE 5.1 9.9----30.04- 79.0 82.9----
2026-09-02 07:48 am NE 5.1 8.0----30.04-- 82.9----
2026-09-02 07:42 am NE 7.0 8.9----30.04-- 82.8----
2026-09-02 07:36 amNNE 6.0 8.0----30.04-- 82.8----
2026-09-02 07:30 amNNE 5.1 6.0----30.04- 79.5 82.8----
2026-09-02 07:24 am N 5.1 6.0----30.04- 79.3 82.8----
2026-09-02 07:18 am N 5.1 6.0----30.04-- 82.8----
2026-09-02 07:12 am N 5.1 6.0----30.04-- 82.8----
2026-09-02 07:06 amNNW 4.1 6.0----30.04-- 82.6----
2026-09-02 07:00 amNNW 2.9 5.1----30.04+0.01 78.8 82.4----
2026-09-02 06:54 am N 4.1 5.1----30.03- 78.6 82.4----
2026-09-02 06:48 amNNW 2.9 4.1----30.03- 78.4 82.4----
2026-09-02 06:42 amWNW 2.9 4.1----30.03- 78.3 82.8----
2026-09-02 06:36 amWNW 2.9 4.1----30.03- 78.1 82.8----
2026-09-02 06:30 am W 2.9 2.9----30.03- 77.5 82.8----
2026-09-02 06:24 amWNW 1.9 2.9----30.03- 77.9 82.8----
2026-09-02 06:18 am NW 2.9 4.1----30.03-- 82.8----
2026-09-02 06:12 am NW 2.9 2.9----30.03-- 82.8----
2026-09-02 06:06 amNNW 1.9 2.9----30.02-- 82.9----
2026-09-02 06:00 am NW 2.9 2.9----30.03+0.02 78.3 82.9----
2026-09-02 05:54 am NW 1.0 1.9----30.02- 78.1 82.9----
2026-09-02 05:48 amNNW 1.9 4.1----30.03- 78.1 83.1----
2026-09-02 05:42 am NW 4.1 5.1----30.03- 78.1 83.3----
2026-09-02 05:36 am NW 4.1 5.1----30.03- 78.1 83.3----
2026-09-02 05:30 amWNW 4.1 5.1----30.03- 78.4 83.3----
2026-09-02 05:24 am NW 4.1 5.1----30.03- 78.3 83.1----
2026-09-02 05:18 amNNW 1.9 2.9----30.02-- 83.1----
2026-09-02 05:12 am NW 1.9 1.9----30.02-- 83.3----
2026-09-02 05:06 am N 1.9 2.9----30.02-- 83.3----
2026-09-02 05:00 amNNW 1.9 2.9----30.02+0.01 78.4 83.3----
2026-09-02 04:54 amNNW 1.9 2.9----30.02- 78.4 83.3----
2026-09-02 04:48 am NW 2.9 2.9----30.03- 78.3 83.3----
2026-09-02 04:42 amNNW 2.9 4.1----30.03- 78.3 83.1----
2026-09-02 04:36 am NW 4.1 5.1----30.03- 78.3 82.9----
2026-09-02 04:30 amNNW 4.1 4.1----30.03- 78.4 83.1----
2026-09-02 04:24 am NW 2.9 4.1----30.03- 78.8 83.3----
2026-09-02 04:18 am NW 1.9 2.9----30.03- 78.6 83.3----
2026-09-02 04:12 am NW 2.9 2.9----30.03- 78.8 83.5----
2026-09-02 04:06 am NW 2.9 4.1----30.03- 78.8 83.5----
2026-09-02 04:00 am NW 4.1 4.1----30.03+0.04 78.6 83.5----
2026-09-02 03:54 am NW 4.1 4.1----30.03- 78.6 83.5----
2026-09-02 03:48 am N 1.9 4.1----30.02-- 83.5----
2026-09-02 03:42 amNNE 1.9 5.1----30.02-- 83.5----
2026-09-02 03:36 amENE 4.1 5.1----30.01-- 83.5----
2026-09-02 03:30 am E 2.9 4.1----30.01- 79.2 83.5----
2026-09-02 03:24 amENE 2.9 5.1----30.01- 79.0 83.5----
2026-09-02 03:18 amENE 4.1 6.0----30.01-- 83.5----
2026-09-02 03:12 amENE 5.1 6.0----30.01-- 83.5----
2026-09-02 03:06 am E 6.0 7.0----30.01-- 83.5----
2026-09-02 03:00 am E 7.0 8.0----30.01+0.03 79.5 83.5----
2026-09-02 02:54 am E 7.0 8.9----30.01- 79.7 83.5----
2026-09-02 02:48 am E 6.0 9.9----30.01- 79.5 83.5----
2026-09-02 02:42 am E 8.9 9.9----30.00- 79.3 83.7----
2026-09-02 02:36 am E 8.9 12.0----30.01- 79.5 83.7----
2026-09-02 02:30 am E 11.1 13.0----30.01- 79.9 83.5----
2026-09-02 02:24 am E 8.9 12.0----30.00- 80.1 83.5----
2026-09-02 02:18 amENE 8.9 9.9----30.00-- 83.5----
2026-09-02 02:12 amENE 8.0 12.0----30.01-- 83.5----
2026-09-02 02:06 amENE 8.0 11.1----30.01-- 83.5----
2026-09-02 02:00 amENE 8.0 11.1----30.01+0.05 80.6 83.5----
2026-09-02 01:54 amENE 7.0 11.1----30.01- 80.8 83.5----
2026-09-02 01:48 am NE 7.0 9.9----30.01- 81.0 83.5----
2026-09-02 01:42 amNNE 8.9 12.0----30.01- 81.1 83.5----
2026-09-02 01:36 amNNE 8.0 12.0----30.01- 81.1 83.5----
2026-09-02 01:30 amNNE 11.1 13.0----30.01- 81.3 83.5----
2026-09-02 01:24 am N 11.1 15.9----30.01- 81.7 83.5----
2026-09-02 01:18 am E 4.1 6.0----29.99-- 83.5----
2026-09-02 01:12 amESE 4.1 6.0----29.98-- 83.5----
2026-09-02 01:06 am E 5.1 5.1----29.99-- 83.5----
2026-09-02 01:00 am E 4.1 5.1----29.99+0.04 83.1 83.5----
2026-09-02 12:54 amENE 2.9 6.0----30.00- 83.1 83.3----
2026-09-02 12:48 amENE 5.1 7.0----30.00- 83.3 83.3----
2026-09-02 12:42 am NE 5.1 7.0----29.99- 83.7 83.3----
2026-09-02 12:36 amENE 5.1 8.0----29.99- 83.7 83.3----
2026-09-02 12:30 am NE 6.0 8.0----29.99- 84.0 83.3----
2026-09-02 12:24 amENE 5.1 7.0----29.99- 84.9 83.3----
2026-09-02 12:18 amNNE 4.1 8.0----29.99-- 83.3----
2026-09-02 12:12 amWNW 1.0 2.9----29.98-- 83.3----
2026-09-02 12:06 am W 1.0 1.0----29.98-- 83.3----
2026-09-02 12:00 am- 0.0 1.0----29.98+0.04 86.5 83.3----
2026-09-01 11:54 pm N 1.0 2.9----29.98- 86.2 83.3----
2026-09-01 11:48 pm N 1.9 2.9----29.98-- 83.3----
2026-09-01 11:42 pm W 2.9 5.1----29.97-- 83.3----
2026-09-01 11:36 pmNNW 4.1 5.1----29.97-- 83.3----
2026-09-01 11:30 pmNNW 5.1 8.0----29.97- 86.9 83.3----
2026-09-01 11:24 pm N 5.1 6.0----29.97- 85.8 83.1----
2026-09-01 11:18 pmWNW 2.9 2.9----29.97-- 83.1----
2026-09-01 11:12 pm- 0.0 2.9----29.96-- 83.1----
2026-09-01 11:06 pmWSW 1.0 1.9----29.96-- 83.1----
2026-09-01 11:00 pm SW 2.9 5.1----29.96+0.05 88.7 83.1----
2026-09-01 10:54 pm SW 2.9 6.0----29.95- 88.9 83.1----
2026-09-01 10:48 pm SW 2.9 5.1----29.95- 89.1 83.1----
2026-09-01 10:42 pmSSW 2.9 6.0----29.95- 89.1 83.1----
2026-09-01 10:36 pmSSW 2.9 5.1----29.95- 89.1 83.1----
2026-09-01 10:30 pm SW 2.9 4.1----29.95- 88.9 83.1----
2026-09-01 10:24 pm SW 1.9 5.1----29.95- 89.2 83.1----
2026-09-01 10:18 pm SW 2.9 6.0----29.95-- 83.3----
2026-09-01 10:12 pm SW 2.9 6.0----29.95-- 83.3----
2026-09-01 10:06 pmSSW 2.9 6.0----29.95-- 83.3----
2026-09-01 10:00 pmSSW 4.1 7.0----29.95+0.04 89.4 83.3----
2026-09-01 09:54 pmSSW 2.9 4.1----29.95- 88.7 83.3----
2026-09-01 09:48 pm W 1.0 2.9----29.95- 88.3 83.3----
2026-09-01 09:42 pm SW 1.9 4.1----29.94- 88.2 83.3----
2026-09-01 09:36 pmWSW 1.0 5.1----29.94- 88.3 83.3----
2026-09-01 09:30 pmWSW 1.0 4.1----29.94- 88.2 83.3----
2026-09-01 09:24 pm SW 1.9 5.1----29.94- 88.3 83.1----
2026-09-01 09:18 pmWSW 1.0 2.9----29.93- 88.5 83.1----
2026-09-01 09:12 pm W 1.0 4.1----29.93- 88.5 83.3----
2026-09-01 09:06 pm- 0.0 4.1----29.94- 88.7 83.3----
2026-09-01 09:00 pmSSW 1.0 1.9----29.94+0.02 88.9 83.1----
2026-09-01 08:54 pm- 0.0 5.1----29.93- 89.2 83.1----
2026-09-01 08:48 pm S 2.9 5.1----29.93- 89.4 83.3----
2026-09-01 08:42 pm S 1.9 2.9----29.93- 89.6 83.3----
2026-09-01 08:36 pmSSW 2.9 6.0----29.92- 89.8 83.1----
2026-09-01 08:30 pm S 4.1 7.0----29.92- 90.0 83.1----
2026-09-01 08:24 pmSSW 2.9 6.0----29.91- 90.3 83.1----
2026-09-01 08:18 pm S 5.1 8.0----29.90-- 82.9----
2026-09-01 08:12 pm S 2.9 6.0----29.90-- 83.1----
2026-09-01 08:06 pm- 0.0 4.1----29.90-- 83.1----
2026-09-01 08:00 pm S 1.9 4.1----29.90-0.03 91.2 83.1----
2026-09-01 07:54 pm S 2.9 5.1----29.90- 90.9 83.1----